Acton, Maine
Current Conditions -  °F | °C
As of 11:55 AM on Tuesday 27 Jan 2015 (Local Time) from KSFM Reporting Station
Overcast Overcast  
Wind Chill: -7°   Ceiling: 500
Heat Index: 12°   Visibility: 0mi
Dew Point:   Wind: 23mph
Humidity: 85%   Direction: 10°N
Pressure: 29.53"   Gusts: 32mph
Location:  43.53°N, 70.91°W
Report Text: KSFM 271655Z AUTO 01020G28KT M1/4SM OVC005 M11/M13 A2953 RMK AO1 P0001
Loading
Personal Weather Stations






























Interactive Weather Map New forecast layout! Learn more

10-Day Weather Forecast

Advertisements
Track Severe Weather on mobile